Time;durP1;ratioP1;P1;durP2;ratioP2;P2;SDS_P1;SDS_P2;PMS_P1;PMS_P2;Temp;Humidity;BMP_temperature;BMP_pressure;BME280_temperature;BME280_humidity;BME280_pressure;Samples;Min_cycle;Max_cycle;Signal;HPM_P1;HPM_P2
2022/06/23 00:01:28;;;;;;;3.50;1.60;;;;;;;22.97;37.02;101082.69;5100562;28;20227;-61
2022/06/23 00:03:57;;;;;;;3.15;1.40;;;;;;;22.97;37.27;101076.38;5100472;28;20044;-61
2022/06/23 00:06:39;;;;;;;4.65;1.50;;;;;;;22.94;37.37;101077.78;5097479;28;20067;-62
2022/06/23 00:09:29;;;;;;;7.43;2.38;;;;;;;22.94;37.50;101085.19;5094057;28;20044;-61
2022/06/23 00:11:57;;;;;;;4.30;2.13;;;;;;;22.92;37.51;101076.47;5094698;28;20417;-61
2022/06/23 00:14:27;;;;;;;3.10;1.50;;;;;;;22.91;37.69;101074.84;5090832;28;20059;-61
2022/06/23 00:16:55;;;;;;;3.53;1.58;;;;;;;22.90;37.57;101084.16;5098550;28;20071;-61
2022/06/23 00:19:23;;;;;;;2.67;1.58;;;;;;;22.87;37.75;101080.09;5102567;28;20044;-59
2022/06/23 00:21:54;;;;;;;2.58;1.58;;;;;;;22.82;38.11;101080.19;5096006;28;20051;-59
2022/06/23 00:24:26;;;;;;;3.05;1.65;;;;;;;22.85;37.93;101084.25;5100471;28;20067;-59
2022/06/23 00:26:55;;;;;;;3.78;1.85;;;;;;;22.83;37.90;101075.50;5095679;28;20055;-60
2022/06/23 00:29:24;;;;;;;2.28;1.50;;;;;;;22.83;38.01;101083.72;5099441;28;20051;-59
2022/06/23 00:31:58;;;;;;;3.33;1.70;;;;;;;22.82;37.99;101084.84;5094199;28;20358;-60
2022/06/23 00:34:31;;;;;;;3.10;1.60;;;;;;;22.80;38.22;101076.91;5099894;28;20045;-59
2022/06/23 00:37:04;;;;;;;4.85;1.83;;;;;;;22.79;38.42;101068.97;5095169;28;20044;-60
2022/06/23 00:39:35;;;;;;;4.80;2.28;;;;;;;22.75;38.38;101066.00;5100466;28;20060;-59
2022/06/23 00:42:08;;;;;;;4.15;1.85;;;;;;;22.73;38.68;101068.22;5097991;28;20082;-59
2022/06/23 00:44:41;;;;;;;2.75;1.70;;;;;;;22.71;38.50;101068.53;5095868;28;20366;-59
2022/06/23 00:47:21;;;;;;;3.80;1.77;;;;;;;22.66;38.98;101057.66;5099166;28;20055;-60
2022/06/23 00:49:54;;;;;;;3.45;1.55;;;;;;;22.67;38.95;101053.78;5106459;28;20075;-59
2022/06/23 00:52:29;;;;;;;4.80;2.03;;;;;;;22.66;39.26;101054.09;5097702;28;20449;-60
2022/06/23 00:55:03;;;;;;;7.50;1.75;;;;;;;22.64;38.84;101059.06;5090685;28;20058;-59
2022/06/23 00:57:37;;;;;;;6.53;1.88;;;;;;;22.62;39.32;101053.88;5099469;28;20063;-60
2022/06/23 01:00:13;;;;;;;4.45;2.30;;;;;;;22.62;39.24;101050.31;5095907;28;20058;-60
2022/06/23 01:02:45;;;;;;;5.45;2.85;;;;;;;22.60;39.32;101056.09;5096197;28;20048;-59
2022/06/23 01:05:20;;;;;;;4.72;2.65;;;;;;;22.59;39.16;101062.69;5099772;28;20063;-58
2022/06/23 01:07:58;;;;;;;4.57;2.03;;;;;;;22.58;39.31;101061.06;5099536;28;20127;-59
2022/06/23 01:10:30;;;;;;;6.18;2.20;;;;;;;22.56;39.59;101052.31;5092156;28;20070;-59
2022/06/23 01:13:05;;;;;;;4.05;2.03;;;;;;;22.53;39.56;101052.13;5092136;28;20593;-59
2022/06/23 01:15:39;;;;;;;5.70;2.17;;;;;;;22.51;39.69;101043.41;5096732;28;20036;-59
2022/06/23 01:18:17;;;;;;;4.25;2.10;;;;;;;22.48;39.86;101044.00;5100716;28;20064;-59
2022/06/23 01:20:51;;;;;;;3.55;2.00;;;;;;;22.45;40.04;101041.84;5100760;28;20261;-59
2022/06/23 01:23:33;;;;;;;8.85;2.17;;;;;;;22.41;39.95;101044.34;5096622;28;20048;-59
2022/06/23 01:26:31;;;;;;;4.57;2.10;;;;;;;22.40;40.12;101048.22;5094081;28;20075;-59
2022/06/23 01:29:05;;;;;;;5.07;2.40;;;;;;;22.38;39.99;101047.69;5101285;28;20512;-60
2022/06/23 01:31:42;;;;;;;3.50;1.67;;;;;;;22.35;40.30;101056.50;5103473;28;20036;-60
2022/06/23 01:34:19;;;;;;;5.30;2.40;;;;;;;22.32;40.37;101057.91;5095959;28;20092;-60
2022/06/23 01:36:51;;;;;;;4.43;2.22;;;;;;;22.31;40.14;101063.69;5102394;28;20052;-60
2022/06/23 01:39:25;;;;;;;3.08;1.88;;;;;;;22.28;40.66;101058.78;5104326;28;20532;-59
2022/06/23 01:41:59;;;;;;;4.18;2.00;;;;;;;22.26;40.70;101050.88;5102561;28;20044;-59
2022/06/23 01:44:42;;;;;;;5.70;2.35;;;;;;;22.24;40.70;101055.00;5104141;28;20048;-59
2022/06/23 01:47:21;;;;;;;4.80;2.25;;;;;;;22.22;40.78;101051.75;5101704;28;20063;-59
2022/06/23 01:49:54;;;;;;;2.53;1.90;;;;;;;22.22;40.99;101049.00;5105177;28;20047;-59
2022/06/23 01:52:23;;;;;;;4.65;2.20;;;;;;;22.18;40.90;101056.19;5104375;28;20082;-59
2022/06/23 01:54:56;;;;;;;5.45;2.20;;;;;;;22.19;40.97;101052.34;5102086;28;20344;-59
2022/06/23 01:57:30;;;;;;;3.78;2.00;;;;;;;22.17;41.07;101046.34;5105318;28;20075;-59
2022/06/23 02:00:09;;;;;;;6.07;2.42;;;;;;;22.17;41.09;101049.91;5103455;28;20090;-59
2022/06/23 02:02:56;;;;;;;4.10;2.47;;;;;;;22.13;40.86;101039.81;5102295;28;20052;-58
2022/06/23 02:05:38;;;;;;;4.47;2.45;;;;;;;22.16;41.24;101041.97;5105253;28;20094;-58
2022/06/23 02:08:29;;;;;;;5.28;2.28;;;;;;;22.13;41.36;101037.09;5103023;28;20040;-58
2022/06/23 02:11:06;;;;;;;3.65;1.90;;;;;;;22.14;41.18;101047.75;5099768;28;20408;-58
2022/06/23 02:13:41;;;;;;;4.20;2.08;;;;;;;22.14;41.17;101041.47;5100167;28;20056;-59
2022/06/23 02:16:19;;;;;;;6.10;2.58;;;;;;;22.13;41.51;101034.34;5096984;28;20066;-58
2022/06/23 02:18:51;;;;;;;4.82;2.30;;;;;;;22.11;41.58;101029.19;5103925;28;20060;-58
2022/06/23 02:21:26;;;;;;;4.85;2.13;;;;;;;22.11;41.43;101031.09;5090717;28;20059;-58
2022/06/23 02:23:59;;;;;;;5.32;2.45;;;;;;;22.08;41.47;101033.31;5101736;28;20564;-58
2022/06/23 02:26:33;;;;;;;6.68;2.55;;;;;;;22.09;41.53;101039.59;5093994;28;20816;-58
2022/06/23 02:29:08;;;;;;;5.47;2.13;;;;;;;22.07;41.32;101041.81;5101085;28;21246;-58
2022/06/23 02:31:43;;;;;;;4.20;2.22;;;;;;;22.01;41.33;101035.56;5095804;28;20311;-58
2022/06/23 02:34:19;;;;;;;5.57;2.40;;;;;;;22.05;41.29;101033.09;5101362;28;20044;-58
2022/06/23 02:37:27;;;;;;;5.25;2.55;;;;;;;22.03;41.57;101035.31;5098970;28;20074;-59
2022/06/23 02:39:57;;;;;;;4.95;2.63;;;;;;;22.04;41.70;101042.41;5102061;28;20496;-59
2022/06/23 02:42:30;;;;;;;5.07;2.65;;;;;;;22.00;41.48;101039.41;5099775;28;20083;-59
2022/06/23 02:45:17;;;;;;;5.40;2.17;;;;;;;22.01;41.54;101032.81;5102799;28;20044;-59
2022/06/23 02:48:02;;;;;;;7.38;3.03;;;;;;;22.00;41.82;101035.84;5096980;28;20052;-60
2022/06/23 02:50:43;;;;;;;6.10;2.92;;;;;;;21.99;41.80;101028.75;5097188;28;20047;-60
2022/06/23 02:53:30;;;;;;;4.32;2.22;;;;;;;21.98;41.73;101030.69;5100229;28;20059;-59
2022/06/23 02:56:07;;;;;;;;;;;;;;;21.97;41.81;101022.75;5099997;28;20094;-60
2022/06/23 02:58:43;;;;;;;5.45;2.53;;;;;;;21.95;41.85;101012.09;5100718;28;19936;-58
2022/06/23 03:01:18;;;;;;;6.57;3.23;;;;;;;21.94;42.02;101020.59;5100206;28;20068;-58
2022/06/23 03:03:52;;;;;;;5.88;2.47;;;;;;;21.91;41.96;101019.28;5098984;28;20110;-58
2022/06/23 03:06:26;;;;;;;5.22;2.83;;;;;;;21.90;42.16;101019.56;5099970;28;20040;-58
2022/06/23 03:08:58;;;;;;;6.85;2.72;;;;;;;21.89;42.21;101017.94;5102997;28;20075;-58
2022/06/23 03:14:34;;;;;;;4.35;2.60;;;;;;;21.85;42.26;101003.22;5086683;28;20497;-58
2022/06/23 03:17:13;;;;;;;6.43;2.50;;;;;;;21.83;42.36;101008.16;5097184;28;20083;-59
2022/06/23 03:19:47;;;;;;;4.90;2.30;;;;;;;21.68;42.13;100999.03;5099630;28;20040;-59
2022/06/23 03:22:20;;;;;;;2.95;2.10;;;;;;;21.79;42.17;101020.81;5085782;28;20083;-59
2022/06/23 03:24:55;;;;;;;4.38;2.42;;;;;;;21.78;42.43;101020.00;5098382;28;20426;-59
2022/06/23 03:27:27;;;;;;;3.80;2.30;;;;;;;21.77;42.09;101021.91;5100717;28;20070;-59
2022/06/23 03:30:00;;;;;;;5.60;2.40;;;;;;;21.76;42.23;101027.69;5097854;28;20048;-58
2022/06/23 03:32:32;;;;;;;5.25;3.00;;;;;;;21.74;42.38;101024.41;5094168;28;20040;-59
2022/06/23 03:35:12;;;;;;;6.28;2.53;;;;;;;21.73;42.20;101022.78;5098037;28;20052;-59
2022/06/23 03:37:48;;;;;;;5.13;2.60;;;;;;;21.70;42.44;101018.72;5101660;28;20078;-59
2022/06/23 03:43:18;;;;;;;4.53;2.25;;;;;;;21.68;42.42;101028.31;5103127;28;20419;-59
2022/06/23 03:45:48;;;;;;;;;;;;;;;21.66;42.37;101028.59;5101089;28;20071;-59
2022/06/23 03:48:23;;;;;;;7.95;2.13;;;;;;;21.63;42.24;101025.63;5103315;28;19924;-59
2022/06/23 03:51:00;;;;;;;5.22;2.50;;;;;;;21.63;42.27;101036.59;5100265;28;20044;-59
2022/06/23 03:53:31;;;;;;;4.25;2.63;;;;;;;21.63;42.25;101031.13;5104969;28;20607;-59
2022/06/23 03:56:03;;;;;;;4.95;2.70;;;;;;;21.63;42.25;101025.63;5099255;28;20110;-58
2022/06/23 03:58:40;;;;;;;6.38;2.80;;;;;;;21.61;42.29;101016.91;5098757;28;20044;-59
2022/06/23 04:01:18;;;;;;;5.45;2.58;;;;;;;21.60;42.25;101016.09;5092577;28;20075;-59
2022/06/23 04:03:51;;;;;;;5.60;2.80;;;;;;;21.59;42.30;101019.13;5095989;28;20040;-59
2022/06/23 04:06:24;;;;;;;5.35;2.53;;;;;;;21.57;42.20;101002.19;5090638;28;20114;-58
2022/06/23 04:08:58;;;;;;;4.95;3.10;;;;;;;21.56;42.20;101004.09;5098401;28;20044;-59
2022/06/23 04:11:46;;;;;;;5.18;2.70;;;;;;;21.57;42.22;101004.94;5098313;28;20059;-59
2022/06/23 04:14:23;;;;;;;4.90;2.50;;;;;;;21.55;42.42;101002.47;5096389;28;20051;-59
2022/06/23 04:16:55;;;;;;;4.72;2.60;;;;;;;21.54;42.28;101010.97;5101776;28;20256;-59
2022/06/23 04:19:27;;;;;;;4.00;2.28;;;;;;;21.53;42.18;101021.09;5103450;28;20063;-59
2022/06/23 04:22:05;;;;;;;3.80;2.80;;;;;;;21.52;42.34;101016.75;5099399;28;20131;-59
2022/06/23 04:24:35;;;;;;;4.10;2.55;;;;;;;21.52;42.35;101024.94;5103429;28;20091;-59
2022/06/23 04:27:12;;;;;;;6.75;3.00;;;;;;;21.50;42.33;101021.69;5098581;28;20068;-59
2022/06/23 04:29:42;;;;;;;6.32;3.03;;;;;;;21.50;42.33;101020.88;5100315;28;20040;-59
2022/06/23 04:32:14;;;;;;;4.97;2.38;;;;;;;21.49;42.41;101024.72;5090748;28;20048;-59
2022/06/23 04:34:49;;;;;;;3.60;2.53;;;;;;;21.48;42.41;101020.34;5100692;28;20036;-59
2022/06/23 04:37:27;;;;;;;4.90;2.47;;;;;;;21.47;42.40;101014.06;5099053;28;20094;-59
2022/06/23 04:40:09;;;;;;;5.57;2.80;;;;;;;21.46;41.85;101020.63;5097074;28;20101;-59
2022/06/23 04:42:48;;;;;;;6.38;3.05;;;;;;;21.43;42.32;101016.56;5100230;28;20047;-59
2022/06/23 04:45:31;;;;;;;6.57;2.97;;;;;;;21.42;42.57;101011.38;5096836;28;20055;-59
2022/06/23 04:48:02;;;;;;;8.10;2.80;;;;;;;21.41;42.37;101020.69;5097271;28;20055;-59
2022/06/23 04:50:41;;;;;;;5.45;2.50;;;;;;;21.38;42.36;101022.09;5094935;28;20047;-59
2022/06/23 04:53:30;;;;;;;5.00;2.80;;;;;;;21.40;42.36;101024.53;5099178;28;20086;-59
2022/06/23 04:56:06;;;;;;;4.13;2.58;;;;;;;21.37;42.40;101011.44;5091679;28;20051;-59
2022/06/23 04:58:44;;;;;;;5.03;2.50;;;;;;;21.38;42.34;101010.34;5100889;28;20052;-58
2022/06/23 05:01:15;;;;;;;4.78;2.90;;;;;;;21.37;42.34;101020.44;5095134;28;20228;-58
2022/06/23 05:03:48;;;;;;;4.22;2.55;;;;;;;21.39;42.25;101025.63;5097463;28;20071;-58
2022/06/23 05:06:24;;;;;;;4.20;2.63;;;;;;;21.40;42.28;101019.88;5101565;28;20135;-58
2022/06/23 05:08:55;;;;;;;6.43;2.78;;;;;;;21.41;42.35;101015.22;5101856;28;20048;-59
2022/06/23 05:11:28;;;;;;;5.25;2.30;;;;;;;21.42;42.31;101017.66;5095248;28;20067;-62
2022/06/23 05:14:00;;;;;;;3.38;2.30;;;;;;;21.38;42.27;101011.16;5102015;28;20036;-59
2022/06/23 05:16:32;;;;;;;4.70;2.78;;;;;;;21.44;42.36;101020.09;5093824;28;20048;-59
2022/06/23 05:19:06;;;;;;;5.68;2.25;;;;;;;21.45;42.32;101024.47;5096577;28;20048;-59
2022/06/23 05:21:39;;;;;;;3.30;2.47;;;;;;;21.47;42.30;101022.25;5101127;28;20044;-59
2022/06/23 05:24:15;;;;;;;5.13;2.95;;;;;;;21.49;42.25;101024.72;5100401;28;20477;-58
2022/06/23 05:26:46;;;;;;;4.30;2.70;;;;;;;21.51;42.23;101025.22;5097981;28;20226;-60
2022/06/23 05:29:18;;;;;;;4.82;2.90;;;;;;;21.52;42.30;101027.69;5102128;28;20044;-59
2022/06/23 05:31:49;;;;;;;4.28;2.58;;;;;;;21.55;42.25;101026.28;5101353;28;20064;-60
2022/06/23 05:34:23;;;;;;;3.92;2.70;;;;;;;21.57;42.27;101024.06;5099871;28;20044;-60
2022/06/23 05:36:56;;;;;;;6.00;2.97;;;;;;;21.58;42.26;101012.84;5100821;28;20421;-60
2022/06/23 05:39:32;;;;;;;8.60;3.45;;;;;;;21.61;42.24;101020.47;5108625;28;20048;-60
2022/06/23 05:42:08;;;;;;;5.10;2.80;;;;;;;21.62;42.36;101011.16;5094317;28;20080;-59
2022/06/23 05:44:44;;;;;;;6.07;2.95;;;;;;;21.64;42.31;101021.81;4746623;28;10000525;-59
2022/06/23 05:47:14;;;;;;;4.07;2.70;;;;;;;21.66;42.38;101025.88;5097609;28;20052;-60
2022/06/23 05:49:47;;;;;;;4.75;2.97;;;;;;;21.67;42.35;101026.69;5093018;28;20207;-59
2022/06/23 05:52:19;;;;;;;6.15;3.03;;;;;;;21.70;42.47;101037.03;5092513;28;20105;-58
2022/06/23 05:54:55;;;;;;;6.05;3.10;;;;;;;21.72;42.52;101038.38;5096277;28;20078;-58
2022/06/23 05:57:29;;;;;;;6.88;3.00;;;;;;;21.74;42.43;101038.09;5097182;28;20119;-58
2022/06/23 06:00:14;;;;;;;4.05;2.80;;;;;;;21.76;42.42;101028.50;5097774;28;20530;-58
2022/06/23 06:02:49;;;;;;;5.18;2.97;;;;;;;21.78;42.52;101025.47;5094495;28;20078;-58
2022/06/23 06:05:25;;;;;;;4.93;2.83;;;;;;;21.80;42.60;101023.25;5095298;28;20346;-58
2022/06/23 06:07:52;;;;;;;5.70;2.80;;;;;;;21.83;42.65;101030.88;5094035;28;20044;-58
2022/06/23 06:10:26;;;;;;;4.47;3.22;;;;;;;21.78;42.63;101017.25;5091562;28;20059;-57
2022/06/23 06:12:55;;;;;;;5.30;2.58;;;;;;;21.85;42.50;101009.50;5089820;28;20047;-57
2022/06/23 06:15:27;;;;;;;3.88;2.65;;;;;;;21.87;42.69;101012.75;5103357;28;20048;-58
2022/06/23 06:18:04;;;;;;;4.25;2.90;;;;;;;21.90;42.65;101014.91;5102857;28;20075;-60
2022/06/23 06:20:32;;;;;;;5.85;2.85;;;;;;;21.92;42.90;101009.97;5103541;28;20051;-57
2022/06/23 06:23:05;;;;;;;5.68;2.80;;;;;;;21.93;43.06;101014.31;5104210;28;20041;-59
2022/06/23 06:25:38;;;;;;;5.53;3.47;;;;;;;21.95;42.92;101016.75;5105663;28;20048;-58
2022/06/23 06:28:15;;;;;;;4.55;2.67;;;;;;;21.96;43.03;101026.59;5104898;28;20120;-58
2022/06/23 06:30:50;;;;;;;5.53;3.22;;;;;;;21.97;42.99;101028.22;5102280;28;20058;-58
2022/06/23 06:33:30;;;;;;;3.88;2.50;;;;;;;21.99;43.00;101024.09;5092164;28;20048;-58
2022/06/23 06:35:58;;;;;;;6.53;3.42;;;;;;;22.00;43.04;101020.25;5104909;28;20048;-59
2022/06/23 06:38:28;;;;;;;4.95;3.00;;;;;;;22.03;43.21;101024.34;5105283;28;20069;-59
2022/06/23 06:41:00;;;;;;;5.20;3.53;;;;;;;22.04;43.27;101018.59;5101657;28;20090;-59
2022/06/23 06:43:32;;;;;;;6.25;3.25;;;;;;;22.08;43.34;101027.03;5099924;28;20075;-57
2022/06/23 06:46:00;;;;;;;5.30;2.45;;;;;;;22.09;43.24;101020.44;5103519;28;20505;-58
2022/06/23 06:48:32;;;;;;;5.53;3.17;;;;;;;22.11;43.42;101026.44;5104655;28;20048;-58
2022/06/23 06:51:03;;;;;;;4.90;2.90;;;;;;;22.11;43.48;101018.22;5105002;28;20051;-58
2022/06/23 06:53:34;;;;;;;8.15;2.70;;;;;;;22.14;43.42;101025.84;5099301;28;20052;-59
2022/06/23 06:56:08;;;;;;;5.05;2.70;;;;;;;22.16;43.45;101025.56;5103548;28;20052;-58
2022/06/23 06:58:42;;;;;;;4.57;2.92;;;;;;;22.18;43.56;101028.81;5104954;28;20066;-57
2022/06/23 07:01:15;;;;;;;9.10;3.15;;;;;;;22.19;43.77;101038.66;5100146;28;20080;-58
2022/06/23 07:03:47;;;;;;;5.00;2.75;;;;;;;22.21;43.89;101041.91;5102105;28;20092;-58
2022/06/23 07:06:25;;;;;;;4.95;3.00;;;;;;;22.22;44.03;101035.31;5104144;28;20107;-57
2022/06/23 07:08:59;;;;;;;4.80;3.05;;;;;;;22.24;43.96;101033.91;5098357;28;20060;-58
2022/06/23 07:11:43;;;;;;;4.35;2.78;;;;;;;22.26;43.83;101026.22;5099040;28;20086;-58
2022/06/23 07:14:17;;;;;;;6.47;2.90;;;;;;;22.25;44.31;101019.13;5099768;28;20043;-58
2022/06/23 07:16:48;;;;;;;6.13;3.13;;;;;;;22.30;44.12;101026.44;5104450;28;20044;-58
2022/06/23 07:19:22;;;;;;;7.35;3.20;;;;;;;22.29;44.22;101014.69;5104275;28;20197;-57
2022/06/23 07:21:56;;;;;;;5.85;3.63;;;;;;;22.31;44.38;101028.88;5093322;28;20063;-59
2022/06/23 07:24:28;;;;;;;6.32;3.47;;;;;;;22.34;44.45;101022.81;5104293;28;20079;-58
2022/06/23 07:27:03;;;;;;;6.15;2.60;;;;;;;22.36;44.49;101011.56;5103234;28;20040;-58
2022/06/23 07:29:39;;;;;;;5.43;3.10;;;;;;;22.38;44.50;101009.34;5092397;28;20052;-58
2022/06/23 07:32:16;;;;;;;5.85;2.80;;;;;;;22.37;44.67;101011.28;5103682;28;20044;-58
2022/06/23 07:34:49;;;;;;;3.47;2.53;;;;;;;22.42;44.67;101015.88;5103968;28;20064;-58
2022/06/23 07:37:24;;;;;;;4.60;3.05;;;;;;;22.45;45.15;101023.47;5101988;28;20076;-59
2022/06/23 07:40:00;;;;;;;8.20;2.90;;;;;;;22.36;45.55;100992.41;5101732;28;20060;-58
2022/06/23 07:42:45;;;;;;;5.78;3.05;;;;;;;22.50;45.36;101008.91;5098588;28;20048;-58
2022/06/23 07:45:18;;;;;;;6.88;3.38;;;;;;;22.53;45.43;101009.13;5104061;28;20090;-58
2022/06/23 07:47:46;;;;;;;7.50;3.10;;;;;;;22.55;45.48;101017.00;5095516;28;20081;-58
2022/06/23 07:50:14;;;;;;;5.47;3.63;;;;;;;22.58;45.72;101019.16;5103918;28;20044;-58
2022/06/23 07:52:43;;;;;;;4.75;2.50;;;;;;;22.60;45.83;101023.22;5103926;28;20056;-58
2022/06/23 07:55:19;;;;;;;7.32;2.75;;;;;;;22.65;46.09;101022.31;5103675;28;20063;-58
2022/06/23 07:58:09;;;;;;;6.22;2.50;;;;;;;22.68;45.80;101021.72;5095900;28;20048;-58
2022/06/23 08:00:41;;;;;;;6.90;2.53;;;;;;;22.71;46.00;101021.13;5099626;28;20056;-58
2022/06/23 08:03:13;;;;;;;7.22;2.70;;;;;;;22.71;46.55;101023.88;5101014;28;20074;-58
2022/06/23 08:05:48;;;;;;;6.30;2.50;;;;;;;22.76;46.17;101022.97;5103343;28;20450;-57
2022/06/23 08:08:19;;;;;;;4.82;2.45;;;;;;;22.79;46.03;101009.53;5094586;28;20040;-58
2022/06/23 08:12:52;;;;;;;6.03;2.83;;;;;;;22.79;46.53;101009.53;5092304;28;20102;-58
2022/06/23 08:13:40;;;;;;;6.75;2.67;;;;;;;22.85;46.44;101013.81;5090742;28;20578;-58
2022/06/23 08:19:08;;;;;;;8.43;2.92;;;;;;;22.92;46.96;101008.75;5097504;28;20065;-59
2022/06/23 08:21:41;;;;;;;8.13;3.55;;;;;;;22.96;46.84;101004.28;5089965;28;20181;-58
2022/06/23 08:24:12;;;;;;;5.00;2.78;;;;;;;23.00;47.00;100999.84;5102813;28;20047;-58
2022/06/23 08:26:44;;;;;;;5.85;3.13;;;;;;;22.99;47.05;100997.41;5100722;28;20052;-58
2022/06/23 08:29:17;;;;;;;5.63;2.90;;;;;;;23.08;47.18;100994.78;5097188;28;20437;-59
2022/06/23 08:31:45;;;;;;;6.63;2.72;;;;;;;23.10;47.02;100996.09;5102768;28;20080;-58
2022/06/23 08:34:32;;;;;;;7.38;3.70;;;;;;;23.14;47.38;100990.81;5090547;28;20044;-58
2022/06/23 08:37:16;;;;;;;8.30;2.90;;;;;;;23.11;47.47;100983.22;5099828;28;20062;-58
2022/06/23 08:39:51;;;;;;;5.82;2.70;;;;;;;23.19;47.33;100997.03;5098741;28;20063;-59
2022/06/23 08:42:27;;;;;;;4.68;3.05;;;;;;;23.23;47.54;100999.97;5095128;28;20137;-59
2022/06/23 08:45:15;;;;;;;5.82;2.70;;;;;;;23.27;47.80;101001.00;5101746;28;20044;-58
2022/06/23 08:47:50;;;;;;;5.25;2.67;;;;;;;23.31;47.89;100993.78;5092000;28;20558;-58
2022/06/23 08:50:34;;;;;;;7.57;2.88;;;;;;;23.35;48.18;100992.88;5102727;28;20044;-61
2022/06/23 08:53:11;;;;;;;5.38;2.90;;;;;;;23.41;48.62;100993.59;5102650;28;20067;-61
2022/06/23 08:55:44;;;;;;;6.43;2.90;;;;;;;23.46;48.08;100993.50;5089492;28;20405;-61
2022/06/23 08:58:25;;;;;;;5.90;2.88;;;;;;;23.51;48.30;100990.66;5101232;28;20078;-61
2022/06/23 09:01:00;;;;;;;8.32;3.00;;;;;;;23.57;48.77;100988.66;5101819;28;20059;-61
2022/06/23 09:03:38;;;;;;;7.40;3.08;;;;;;;23.63;48.73;100987.44;5098457;28;20048;-61
2022/06/23 09:06:13;;;;;;;7.82;2.97;;;;;;;23.62;48.50;100975.63;5101661;28;20047;-61
2022/06/23 09:08:46;;;;;;;4.30;2.60;;;;;;;23.74;48.74;100990.78;5102144;28;20044;-61
2022/06/23 09:11:38;;;;;;;6.65;2.83;;;;;;;23.78;48.82;100989.84;5090565;28;20047;-61
2022/06/23 09:14:30;;;;;;;6.72;2.40;;;;;;;23.80;48.48;100984.06;5102135;28;20064;-61
2022/06/23 09:17:18;;;;;;;6.75;2.60;;;;;;;23.85;49.11;100989.44;5092298;28;20468;-61
2022/06/23 09:20:01;;;;;;;5.82;2.60;;;;;;;23.88;49.54;100984.16;5088840;28;20058;-61
2022/06/23 09:22:45;;;;;;;5.13;2.75;;;;;;;23.92;49.12;100982.41;5095025;28;20051;-61
2022/06/23 09:25:17;;;;;;;7.20;3.20;;;;;;;23.96;49.70;100986.16;5101838;28;20048;-61
2022/06/23 09:28:07;;;;;;;6.03;2.97;;;;;;;24.05;49.90;100989.00;5099574;28;20079;-61
2022/06/23 09:30:40;;;;;;;5.05;2.75;;;;;;;24.11;49.76;100986.94;5099107;28;20116;-61
2022/06/23 09:33:23;;;;;;;6.57;3.22;;;;;;;24.17;49.90;100975.53;5089434;28;20048;-61
2022/06/23 09:36:21;;;;;;;7.35;3.00;;;;;;;24.23;49.90;100976.22;5088768;28;20140;-60
2022/06/23 09:39:06;;;;;;;5.47;2.92;;;;;;;24.28;50.16;100976.13;5095708;28;20044;-61
2022/06/23 09:41:58;;;;;;;6.05;2.70;;;;;;;24.32;50.03;100974.38;5058395;28;20076;-62
2022/06/23 09:44:38;;;;;;;5.55;2.70;;;;;;;24.35;49.81;100965.50;5061547;28;20084;-61
2022/06/23 09:47:24;;;;;;;9.15;3.00;;;;;;;24.27;49.90;100941.53;5061482;28;20048;-61
2022/06/23 09:50:30;;;;;;;9.55;3.10;;;;;;;24.48;50.01;100961.09;5053040;28;20049;-61
2022/06/23 09:53:19;;;;;;;9.20;3.45;;;;;;;24.51;49.88;100963.22;5036944;28;20143;-60
2022/06/23 09:56:24;;;;;;;8.50;2.90;;;;;;;24.58;50.19;100963.59;5064680;28;20041;-61
2022/06/23 09:59:09;;;;;;;12.40;3.70;;;;;;;24.66;50.51;100965.56;5064715;28;20052;-59
2022/06/23 10:01:47;;;;;;;7.03;2.55;;;;;;;24.72;50.49;100964.31;5064899;28;20534;-61
2022/06/23 10:04:43;;;;;;;4.40;3.20;;;;;;;24.75;50.15;100965.63;5064882;28;20085;-60
2022/06/23 10:07:43;;;;;;;8.70;3.25;;;;;;;24.77;49.92;100968.88;5064835;28;20098;-60
2022/06/23 10:10:21;;;;;;;7.68;2.58;;;;;;;24.80;50.54;100966.31;4978735;28;20559;-60
2022/06/23 10:13:03;;;;;;;7.88;3.17;;;;;;;24.87;50.68;100968.63;4982829;28;20070;-60
2022/06/23 10:15:43;;;;;;;8.02;2.50;;;;;;;24.93;50.67;100967.34;4980838;28;20071;-60
2022/06/23 10:18:31;;;;;;;7.63;3.60;;;;;;;24.97;50.56;100968.38;4982784;28;20122;-61
2022/06/23 10:21:17;;;;;;;7.35;3.10;;;;;;;24.95;49.90;100963.16;4971798;28;20079;-60
2022/06/23 10:24:08;;;;;;;7.28;3.10;;;;;;;24.99;50.22;100968.88;4983496;28;20054;-60
2022/06/23 10:26:50;;;;;;;7.15;3.67;;;;;;;25.04;50.31;100959.69;4969958;28;20042;-60
2022/06/23 10:29:45;;;;;;;7.30;3.28;;;;;;;25.08;49.98;100966.97;4982226;28;20173;-57
2022/06/23 10:32:30;;;;;;;6.00;2.63;;;;;;;25.12;50.32;100959.72;4983220;28;20074;-60
2022/06/23 10:35:14;;;;;;;10.15;2.88;;;;;;;25.20;50.43;100950.69;4982890;28;20079;-60
2022/06/23 10:38:05;;;;;;;5.00;2.42;;;;;;;25.28;50.22;100952.66;4972654;28;20106;-61
2022/06/23 10:40:58;;;;;;;9.25;3.10;;;;;;;25.37;50.59;100949.13;4993310;28;20077;-60
2022/06/23 10:43:56;;;;;;;4.30;2.97;;;;;;;25.39;50.27;100947.69;5001939;28;20042;-60
2022/06/23 10:46:30;;;;;;;5.60;3.05;;;;;;;25.38;49.83;100948.00;5020961;28;20049;-61
2022/06/23 10:49:34;;;;;;;7.93;3.28;;;;;;;25.40;50.29;100943.81;5062953;28;20049;-61
2022/06/23 10:52:27;;;;;;;5.30;2.92;;;;;;;25.43;49.92;100937.66;5052012;28;20049;-61
2022/06/23 10:55:27;;;;;;;8.65;3.63;;;;;;;25.48;49.69;100947.72;5051159;28;20051;-60
2022/06/23 10:58:25;;;;;;;8.88;3.30;;;;;;;25.50;49.84;100932.50;5063720;28;20080;-60
2022/06/23 11:01:04;;;;;;;7.60;2.85;;;;;;;25.59;50.01;100938.84;5063267;28;20430;-60
2022/06/23 11:04:11;;;;;;;5.80;2.95;;;;;;;25.66;50.30;100938.41;5056042;28;20086;-61
2022/06/23 11:06:59;;;;;;;6.77;3.07;;;;;;;25.73;49.48;100929.66;5033747;28;20045;-61
2022/06/23 11:09:45;;;;;;;5.25;3.38;;;;;;;25.74;49.75;100923.84;5064143;28;20295;-60
2022/06/23 11:12:30;;;;;;;6.30;2.67;;;;;;;25.76;49.55;100923.53;5056119;28;20045;-61
2022/06/23 11:15:13;;;;;;;10.57;3.78;;;;;;;25.83;49.87;100932.91;5064353;28;20102;-61
2022/06/23 11:17:57;;;;;;;6.50;2.75;;;;;;;25.90;49.72;100921.44;5061595;28;21339;-60
2022/06/23 11:20:35;;;;;;;7.78;3.05;;;;;;;25.94;49.48;100922.41;5064009;28;20155;-61
2022/06/23 11:23:13;;;;;;;7.05;2.67;;;;;;;26.01;49.62;100924.66;5064281;28;20049;-61
2022/06/23 11:25:54;;;;;;;7.60;2.75;;;;;;;26.07;49.34;100923.34;5059338;28;20078;-60
2022/06/23 11:28:41;;;;;;;6.95;2.92;;;;;;;26.12;49.36;100932.25;5063291;28;20394;-60
2022/06/23 11:31:28;;;;;;;8.75;3.20;;;;;;;26.21;49.17;100930.31;5056183;28;20057;-62
2022/06/23 11:34:31;;;;;;;7.93;3.50;;;;;;;26.23;49.40;100930.81;5060128;28;20108;-62
2022/06/23 11:37:20;;;;;;;5.82;2.58;;;;;;;26.25;49.08;100934.03;5063366;28;20070;-62
2022/06/23 11:40:11;;;;;;;9.93;3.58;;;;;;;26.32;49.16;100927.25;5070638;28;20554;-61
2022/06/23 11:42:55;;;;;;;8.40;2.93;;;;;;;26.36;48.63;100923.53;5091390;28;20093;-61
2022/06/23 11:45:34;;;;;;;9.25;3.40;;;;;;;26.39;48.95;100914.59;5103656;28;20798;-61
2022/06/23 11:48:22;;;;;;;8.65;2.80;;;;;;;26.41;48.89;100917.84;5097868;28;20044;-61
2022/06/23 11:50:57;;;;;;;8.07;3.17;;;;;;;26.46;48.94;100914.91;5089360;28;20071;-61
2022/06/23 11:53:52;;;;;;;7.88;2.80;;;;;;;26.46;49.22;100917.69;5098330;28;20044;-61
2022/06/23 11:56:32;;;;;;;8.65;3.40;;;;;;;26.56;48.75;100908.25;5101890;28;20519;-60
2022/06/23 11:59:12;;;;;;;7.55;3.47;;;;;;;26.66;48.79;100902.38;5093312;28;20052;-61
2022/06/23 12:01:40;;;;;;;6.75;2.80;;;;;;;26.75;48.21;100908.69;5099894;28;20064;-61
2022/06/23 12:04:31;;;;;;;7.95;3.08;;;;;;;26.84;48.20;100897.63;5102259;28;20044;-61
2022/06/23 12:07:16;;;;;;;6.63;2.85;;;;;;;26.90;48.38;100896.31;5100442;28;20060;-61
2022/06/23 12:09:54;;;;;;;6.18;3.17;;;;;;;26.90;48.34;100897.13;5102064;28;20082;-61
2022/06/23 12:12:22;;;;;;;7.97;2.65;;;;;;;26.88;48.09;100898.59;5089995;28;20048;-61
2022/06/23 12:14:51;;;;;;;9.57;3.10;;;;;;;26.88;48.49;100907.66;5103575;28;20500;-61
2022/06/23 12:17:24;;;;;;;7.07;3.00;;;;;;;26.87;48.29;100902.50;5102905;28;20044;-61
2022/06/23 12:19:59;;;;;;;8.45;3.00;;;;;;;26.95;48.27;100898.06;5095741;28;20048;-61
2022/06/23 12:22:36;;;;;;;6.50;3.45;;;;;;;27.00;48.56;100890.47;5102524;28;20075;-61
2022/06/23 12:25:17;;;;;;;9.77;3.10;;;;;;;27.00;48.40;100895.97;5098971;28;20083;-61